createdAt,value
2022-12-15T15:53:34.119Z,39.72
2022-12-15T15:56:03.536Z,38.83
2022-12-15T15:58:31.769Z,40.65
2022-12-15T16:00:59.741Z,39.60
2022-12-15T16:03:27.740Z,35.47
2022-12-15T16:05:55.803Z,40.63
2022-12-15T16:08:28.755Z,31.15
2022-12-15T16:10:58.435Z,36.15
2022-12-15T16:13:26.664Z,34.63
2022-12-15T16:15:54.605Z,37.38
2022-12-15T16:18:22.555Z,36.60
2022-12-15T16:20:52.754Z,42.13
2022-12-15T16:23:24.881Z,33.80
2022-12-15T16:25:58.029Z,32.83
2022-12-15T16:28:29.224Z,35.25
2022-12-15T16:30:58.634Z,35.00
2022-12-15T16:33:26.847Z,35.47
2022-12-15T16:35:54.979Z,30.88
2022-12-15T16:38:25.746Z,31.65
2022-12-15T16:40:55.522Z,46.28
2022-12-15T16:43:29.007Z,36.67
2022-12-15T16:46:02.405Z,34.08
2022-12-15T16:48:30.517Z,29.98
2022-12-15T16:50:59.846Z,28.35
2022-12-15T16:53:30.416Z,37.80
2022-12-15T16:55:59.786Z,36.28
2022-12-15T16:58:30.039Z,30.60
2022-12-15T17:00:58.567Z,33.55
2022-12-15T17:03:27.917Z,32.47
2022-12-15T17:05:58.157Z,32.00
2022-12-15T17:08:38.321Z,31.52
2022-12-15T17:11:06.608Z,31.23
2022-12-15T17:13:43.574Z,27.75
2022-12-15T17:16:14.815Z,30.92
2022-12-15T17:18:44.687Z,30.92
2022-12-15T17:21:16.335Z,32.33
2022-12-15T17:23:45.419Z,28.00
2022-12-15T17:26:27.586Z,32.78
2022-12-15T17:28:57.921Z,31.65
2022-12-15T17:31:30.310Z,30.55
2022-12-15T17:34:11.479Z,32.90
2022-12-15T17:36:39.363Z,32.45
2022-12-15T17:39:10.730Z,33.28
2022-12-15T17:44:33.438Z,34.83
2022-12-15T17:47:03.089Z,30.33
2022-12-15T17:49:36.209Z,28.00
2022-12-15T17:52:08.200Z,30.92
2022-12-15T17:54:36.579Z,30.60
2022-12-15T17:57:05.606Z,37.35
2022-12-15T17:59:33.515Z,36.05
2022-12-15T18:02:02.420Z,32.58
2022-12-15T18:04:31.607Z,32.20
2022-12-15T18:07:02.456Z,37.72
2022-12-15T18:09:31.763Z,29.95
2022-12-15T18:11:59.601Z,33.55
2022-12-15T18:14:29.012Z,30.85
2022-12-15T18:16:56.789Z,34.58
2022-12-15T18:19:24.629Z,34.17
2022-12-15T18:21:54.275Z,35.97
2022-12-15T18:24:22.367Z,31.92
2022-12-15T18:26:50.150Z,31.83
2022-12-15T18:29:19.035Z,31.48
2022-12-15T18:31:48.659Z,33.25
2022-12-15T18:34:18.274Z,37.72
2022-12-15T18:36:46.136Z,33.30
2022-12-15T18:39:20.035Z,31.67
2022-12-15T18:41:48.961Z,32.78
2022-12-15T18:44:22.437Z,34.80
2022-12-15T18:46:50.346Z,34.95
2022-12-15T18:49:18.933Z,33.38
2022-12-15T18:51:48.082Z,37.35
2022-12-15T18:54:19.946Z,34.92
2022-12-15T18:56:47.952Z,37.78
2022-12-15T18:59:17.584Z,37.38
2022-12-15T19:01:46.742Z,36.67
2022-12-15T19:04:15.050Z,37.17
2022-12-15T19:06:43.912Z,34.85
2022-12-15T19:09:16.503Z,37.88
2022-12-15T19:12:17.451Z,34.08
2022-12-15T19:14:47.079Z,34.47
2022-12-15T19:17:35.939Z,43.55
2022-12-15T19:20:23.826Z,34.42
2022-12-15T19:22:53.532Z,35.92
2022-12-15T19:25:26.246Z,39.70
2022-12-15T19:27:59.727Z,36.70
2022-12-15T19:30:29.844Z,35.70
2022-12-15T19:32:58.116Z,32.70
2022-12-15T19:35:27.169Z,34.13
2022-12-15T19:37:58.119Z,29.33
2022-12-15T19:40:30.217Z,35.05
2022-12-15T19:43:00.179Z,33.95
2022-12-15T19:45:30.083Z,43.92
2022-12-15T19:47:58.388Z,41.03
2022-12-15T19:50:28.450Z,38.00
2022-12-15T19:52:58.854Z,38.15
2022-12-15T19:55:30.350Z,41.85
2022-12-15T19:57:59.654Z,40.78
2022-12-15T20:00:27.880Z,43.50
2022-12-15T20:02:56.569Z,45.55
2022-12-15T20:05:25.929Z,40.50
2022-12-15T20:07:55.635Z,51.50
2022-12-15T20:10:31.896Z,43.53
2022-12-15T20:13:03.276Z,46.03
2022-12-15T20:15:31.067Z,43.40
2022-12-15T20:17:58.954Z,43.47
2022-12-15T20:20:28.755Z,39.95
2022-12-15T20:22:59.678Z,40.78
2022-12-15T20:25:29.892Z,40.88
2022-12-15T20:28:00.115Z,37.75
2022-12-15T20:30:32.664Z,36.05
2022-12-15T20:33:00.762Z,39.95
2022-12-15T20:35:31.051Z,37.58
2022-12-15T20:37:58.862Z,38.83
2022-12-15T20:40:29.374Z,35.75
2022-12-15T20:42:57.866Z,39.67
2022-12-15T20:45:28.067Z,42.50
2022-12-15T20:47:57.577Z,38.08
2022-12-15T20:50:28.784Z,43.25
2022-12-15T20:52:56.733Z,43.53
2022-12-15T20:55:24.891Z,49.97
2022-12-15T20:57:52.635Z,46.80
2022-12-15T21:00:24.229Z,54.80
2022-12-15T21:02:54.896Z,42.05
